Terminal Aerodrome Forecast
Issued by NWS Grand Forks, ND

Home | Current Version | Previous Version | Text Only | Print | Product List | Glossary Off
Versions: 1 2 3 4 5 6 7 8 9 10 11 12 13

000
FTUS43 KFGF 020950 AAB
TAFGFK
TAF AMD
KGFK 020950Z 0210/0306 34012KT P6SM VCTS BKN080CB
     FM021100 34012KT P6SM BKN080
     FM021600 34014G22KT P6SM FEW035 SCT120
     FM030100 31006KT P6SM SKC=

USA.gov is the U.S. government's official web portal to all federal, state and local government web resources and services.